Errachidia, Morocco

6:16 PM WEST on September 04, 2015 (GMT +0100)
Moulay Ali Cherif | | Change Station
CLOSE
Current Station
Airport
Location: Errachidia,
Elevation: 3425 ft
Nearby Weather Stations

Elev 3425 ft 31.93 °N, 4.40 °W | Updated 16 minutes ago

Partly Cloudy
Partly Cloudy
99 °F
Feels Like 99 °F
N
17
Wind Variable Wind from SSW

Today
High -- | Low -- °F
--% Chance of Precip.
Yesterday
High -- | Low -- °F
Precip. -- in
6:54 AM 7:38 PM
Waning Gibbous, 58% visible
Pressure 29.95 in
Visibility 6.2 miles
Clouds Few 2600 ft
Dew Point 30 °F
Humidity 9%
Rainfall 0.00 in
Snow Depth Not available.
UV 2 out of 12
Pollen Not available.
Air Quality Not available.
Flu Activity Not available.
METAR GMFK 041700Z 20015KT 170V230 9999 FEW026 37/M01 Q1014 NOSIG
Pressure 29.95 in
Visibility 6.2 miles
Clouds Few 2600 ft
Dew Point 30 °F
Humidity 9%
Rainfall 0.00 in
Snow Depth Not available.
UV 2 out of 12
Pollen Not available.
Air Quality Not available.
Flu Activity Not available.
METAR GMFK 041700Z 20015KT 170V230 9999 FEW026 37/M01 Q1014 NOSIG

10-Day Weather Forecast

×

Almanac

Astronomy

Sep. 04, 2015 Rise Set
Actual Time
Civil Twilight
Nautical Twilight
Astronomical Twilight
Moon
Length of Visible Light
Length of Day
Tomorrow will be .
, % of the Moon is Illuminated

Today's Extremes

Country Highs Country Lows

Community

WunderPhotos

Upload Photos

1,852,231 photos uploaded!

WunderBlogs® & News

Nearby

Air Quality

  Air Quality AQ Index Pollutant
Not available.

Snow Depth

Station Depth Elevation

Earthquake Activity

City Distance Mag. Time & Date
Minimum magnitude displayed is 2.5.

Coastal Water Temperatures

Place Temperature

Stations

Nearby Weather Stations

Station Location Temp. Windchill Dew Point Humidity Wind Precip. Elev Updated Type